sensor_id;sensor_type;location;lat;lon;timestamp;pressure;altitude;pressure_sealevel;temperature;humidity
63691;BME280;49837;57.280;27.070;2024-03-17T00:00:18;99385.45;;;5.99;100.0
63691;BME280;49837;57.280;27.070;2024-03-17T00:01:19;99383.02;;;5.97;100.0
63691;BME280;49837;57.280;27.070;2024-03-17T00:02:19;99382.14;;;5.91;100.0
63691;BME280;49837;57.280;27.070;2024-03-17T00:03:19;99382.23;;;5.91;100.0
63691;BME280;49837;57.280;27.070;2024-03-17T00:04:20;99378.66;;;5.91;100.0
63691;BME280;49837;57.280;27.070;2024-03-17T00:05:20;99379.33;;;5.95;100.0
63691;BME280;49837;57.280;27.070;2024-03-17T00:06:21;99385.66;;;5.96;100.0
63691;BME280;49837;57.280;27.070;2024-03-17T00:07:21;99387.72;;;5.96;100.0
63691;BME280;49837;57.280;27.070;2024-03-17T00:08:21;99385.48;;;5.97;100.0
63691;BME280;49837;57.280;27.070;2024-03-17T00:09:22;99386.78;;;5.95;100.0
63691;BME280;49837;57.280;27.070;2024-03-17T00:10:22;99386.11;;;5.88;100.0
63691;BME280;49837;57.280;27.070;2024-03-17T00:11:23;99385.58;;;5.9;100.0
63691;BME280;49837;57.280;27.070;2024-03-17T00:12:23;99381.64;;;5.91;100.0
63691;BME280;49837;57.280;27.070;2024-03-17T00:13:23;99384.44;;;5.92;100.0
63691;BME280;49837;57.280;27.070;2024-03-17T00:14:25;99380.25;;;5.87;100.0
63691;BME280;49837;57.280;27.070;2024-03-17T00:15:24;99379.89;;;5.85;100.0
63691;BME280;49837;57.280;27.070;2024-03-17T00:16:24;99378.67;;;5.88;100.0
63691;BME280;49837;57.280;27.070;2024-03-17T00:17:25;99381.64;;;5.91;100.0
63691;BME280;49837;57.280;27.070;2024-03-17T00:18:25;99380.7;;;5.93;100.0
63691;BME280;49837;57.280;27.070;2024-03-17T00:19:26;99381.3;;;5.96;100.0
63691;BME280;49837;57.280;27.070;2024-03-17T00:20:26;99381.91;;;5.98;100.0
63691;BME280;49837;57.280;27.070;2024-03-17T00:21:26;99382.69;;;5.97;100.0
63691;BME280;49837;57.280;27.070;2024-03-17T00:22:28;99378.67;;;5.98;100.0
63691;BME280;49837;57.280;27.070;2024-03-17T00:23:27;99384.72;;;5.98;100.0
63691;BME280;49837;57.280;27.070;2024-03-17T00:24:28;99384.03;;;5.92;100.0
63691;BME280;49837;57.280;27.070;2024-03-17T00:25:28;99384.75;;;5.94;100.0
63691;BME280;49837;57.280;27.070;2024-03-17T00:26:29;99385.83;;;5.96;100.0
63691;BME280;49837;57.280;27.070;2024-03-17T00:27:29;99381.31;;;5.95;100.0
63691;BME280;49837;57.280;27.070;2024-03-17T00:28:29;99385.14;;;5.97;100.0
63691;BME280;49837;57.280;27.070;2024-03-17T00:29:29;99381.22;;;5.99;100.0
63691;BME280;49837;57.280;27.070;2024-03-17T00:30:30;99383.4;;;5.98;100.0
63691;BME280;49837;57.280;27.070;2024-03-17T00:31:32;99380.53;;;5.96;100.0
63691;BME280;49837;57.280;27.070;2024-03-17T00:32:32;99383.23;;;5.94;100.0
63691;BME280;49837;57.280;27.070;2024-03-17T00:33:32;99384.56;;;5.91;100.0
63691;BME280;49837;57.280;27.070;2024-03-17T00:34:33;99380.28;;;5.9;100.0
63691;BME280;49837;57.280;27.070;2024-03-17T00:35:34;99380.34;;;5.94;100.0
63691;BME280;49837;57.280;27.070;2024-03-17T00:36:34;99378.48;;;5.92;100.0
63691;BME280;49837;57.280;27.070;2024-03-17T00:37:34;99376.83;;;5.96;100.0
63691;BME280;49837;57.280;27.070;2024-03-17T00:38:34;99372.0;;;5.93;100.0
63691;BME280;49837;57.280;27.070;2024-03-17T00:39:35;99375.23;;;5.9;100.0
63691;BME280;49837;57.280;27.070;2024-03-17T00:40:36;99375.27;;;5.92;100.0
63691;BME280;49837;57.280;27.070;2024-03-17T00:41:35;99376.55;;;5.94;100.0
63691;BME280;49837;57.280;27.070;2024-03-17T00:42:36;99376.28;;;5.95;100.0
63691;BME280;49837;57.280;27.070;2024-03-17T00:43:36;99373.63;;;5.95;100.0
63691;BME280;49837;57.280;27.070;2024-03-17T00:44:36;99373.96;;;5.94;100.0
63691;BME280;49837;57.280;27.070;2024-03-17T00:45:37;99372.73;;;5.94;100.0
63691;BME280;49837;57.280;27.070;2024-03-17T00:46:37;99370.39;;;5.95;100.0
63691;BME280;49837;57.280;27.070;2024-03-17T00:47:38;99369.8;;;5.96;100.0
63691;BME280;49837;57.280;27.070;2024-03-17T00:48:38;99370.67;;;5.96;100.0
63691;BME280;49837;57.280;27.070;2024-03-17T00:49:38;99369.68;;;5.93;100.0
63691;BME280;49837;57.280;27.070;2024-03-17T00:50:39;99366.27;;;5.97;100.0
63691;BME280;49837;57.280;27.070;2024-03-17T00:51:39;99365.85;;;5.94;100.0
63691;BME280;49837;57.280;27.070;2024-03-17T00:52:40;99367.53;;;5.94;100.0
63691;BME280;49837;57.280;27.070;2024-03-17T00:53:40;99361.85;;;5.95;100.0
63691;BME280;49837;57.280;27.070;2024-03-17T00:54:41;99365.71;;;5.94;100.0
63691;BME280;49837;57.280;27.070;2024-03-17T00:55:41;99363.94;;;5.99;100.0
63691;BME280;49837;57.280;27.070;2024-03-17T00:56:41;99367.2;;;5.93;100.0
63691;BME280;49837;57.280;27.070;2024-03-17T00:57:42;99367.88;;;5.96;100.0
63691;BME280;49837;57.280;27.070;2024-03-17T00:58:42;99367.31;;;5.99;100.0
63691;BME280;49837;57.280;27.070;2024-03-17T00:59:42;99367.27;;;5.98;100.0
63691;BME280;49837;57.280;27.070;2024-03-17T01:00:43;99367.91;;;5.98;100.0
63691;BME280;49837;57.280;27.070;2024-03-17T01:01:43;99364.83;;;5.99;100.0
63691;BME280;49837;57.280;27.070;2024-03-17T01:02:44;99369.92;;;6.02;100.0
63691;BME280;49837;57.280;27.070;2024-03-17T01:03:44;99367.52;;;6.02;100.0
63691;BME280;49837;57.280;27.070;2024-03-17T01:04:45;99366.41;;;6.01;100.0
63691;BME280;49837;57.280;27.070;2024-03-17T01:05:45;99363.11;;;5.98;100.0
63691;BME280;49837;57.280;27.070;2024-03-17T01:06:46;99364.64;;;5.97;100.0
63691;BME280;49837;57.280;27.070;2024-03-17T01:07:46;99368.24;;;5.92;100.0
63691;BME280;49837;57.280;27.070;2024-03-17T01:08:46;99366.33;;;5.88;100.0
63691;BME280;49837;57.280;27.070;2024-03-17T01:09:49;99366.2;;;5.9;100.0
63691;BME280;49837;57.280;27.070;2024-03-17T01:10:48;99365.16;;;5.85;100.0
63691;BME280;49837;57.280;27.070;2024-03-17T01:11:47;99360.95;;;5.8;100.0
63691;BME280;49837;57.280;27.070;2024-03-17T01:12:48;99363.48;;;5.83;100.0
63691;BME280;49837;57.280;27.070;2024-03-17T01:13:48;99361.85;;;5.88;100.0
63691;BME280;49837;57.280;27.070;2024-03-17T01:14:48;99358.55;;;5.82;100.0
63691;BME280;49837;57.280;27.070;2024-03-17T01:15:51;99354.23;;;5.85;100.0
63691;BME280;49837;57.280;27.070;2024-03-17T01:16:50;99356.3;;;5.85;100.0
63691;BME280;49837;57.280;27.070;2024-03-17T01:17:49;99356.7;;;5.86;100.0
63691;BME280;49837;57.280;27.070;2024-03-17T01:18:50;99357.5;;;5.9;100.0
63691;BME280;49837;57.280;27.070;2024-03-17T01:19:50;99353.77;;;5.87;100.0
63691;BME280;49837;57.280;27.070;2024-03-17T01:20:51;99356.53;;;5.9;100.0
63691;BME280;49837;57.280;27.070;2024-03-17T01:21:51;99353.12;;;5.94;100.0
63691;BME280;49837;57.280;27.070;2024-03-17T01:22:51;99356.48;;;5.95;100.0
63691;BME280;49837;57.280;27.070;2024-03-17T01:23:52;99352.92;;;5.92;100.0
63691;BME280;49837;57.280;27.070;2024-03-17T01:24:52;99358.19;;;5.93;100.0
63691;BME280;49837;57.280;27.070;2024-03-17T01:25:53;99358.73;;;5.84;100.0
63691;BME280;49837;57.280;27.070;2024-03-17T01:26:53;99354.27;;;5.84;100.0
63691;BME280;49837;57.280;27.070;2024-03-17T01:27:53;99353.8;;;5.83;100.0
63691;BME280;49837;57.280;27.070;2024-03-17T01:28:54;99349.89;;;5.83;100.0
63691;BME280;49837;57.280;27.070;2024-03-17T01:29:54;99353.44;;;5.87;100.0
63691;BME280;49837;57.280;27.070;2024-03-17T01:30:55;99351.71;;;5.87;100.0
63691;BME280;49837;57.280;27.070;2024-03-17T01:31:55;99352.75;;;5.85;100.0
63691;BME280;49837;57.280;27.070;2024-03-17T01:32:55;99353.12;;;5.86;100.0
63691;BME280;49837;57.280;27.070;2024-03-17T01:33:56;99351.59;;;5.81;100.0
63691;BME280;49837;57.280;27.070;2024-03-17T01:34:56;99350.48;;;5.79;100.0
63691;BME280;49837;57.280;27.070;2024-03-17T01:35:56;99355.8;;;5.78;100.0
63691;BME280;49837;57.280;27.070;2024-03-17T01:36:57;99358.0;;;5.76;100.0
63691;BME280;49837;57.280;27.070;2024-03-17T01:37:57;99356.84;;;5.76;100.0
63691;BME280;49837;57.280;27.070;2024-03-17T01:38:58;99352.26;;;5.78;100.0
63691;BME280;49837;57.280;27.070;2024-03-17T01:40:01;99355.73;;;5.81;100.0
63691;BME280;49837;57.280;27.070;2024-03-17T01:40:58;99355.7;;;5.86;100.0
63691;BME280;49837;57.280;27.070;2024-03-17T01:41:59;99355.66;;;5.88;100.0
63691;BME280;49837;57.280;27.070;2024-03-17T01:42:59;99357.46;;;5.89;100.0
63691;BME280;49837;57.280;27.070;2024-03-17T01:43:59;99353.11;;;5.91;100.0
63691;BME280;49837;57.280;27.070;2024-03-17T01:45:00;99356.72;;;5.95;100.0
63691;BME280;49837;57.280;27.070;2024-03-17T01:46:00;99350.79;;;5.87;100.0
63691;BME280;49837;57.280;27.070;2024-03-17T01:47:01;99350.3;;;5.84;100.0
63691;BME280;49837;57.280;27.070;2024-03-17T01:48:02;99345.56;;;5.8;100.0
63691;BME280;49837;57.280;27.070;2024-03-17T01:49:01;99348.8;;;5.84;100.0
63691;BME280;49837;57.280;27.070;2024-03-17T01:50:02;99348.21;;;5.84;100.0
63691;BME280;49837;57.280;27.070;2024-03-17T01:51:02;99351.71;;;5.87;100.0
63691;BME280;49837;57.280;27.070;2024-03-17T01:52:03;99351.27;;;5.88;100.0
63691;BME280;49837;57.280;27.070;2024-03-17T01:53:05;99354.5;;;5.92;100.0
63691;BME280;49837;57.280;27.070;2024-03-17T01:54:04;99358.59;;;5.9;100.0
63691;BME280;49837;57.280;27.070;2024-03-17T01:55:05;99354.86;;;5.87;100.0
63691;BME280;49837;57.280;27.070;2024-03-17T01:56:06;99356.8;;;5.89;100.0
63691;BME280;49837;57.280;27.070;2024-03-17T01:57:05;99357.58;;;5.95;100.0
63691;BME280;49837;57.280;27.070;2024-03-17T01:58:05;99356.48;;;5.98;100.0
63691;BME280;49837;57.280;27.070;2024-03-17T01:59:07;99357.57;;;5.98;100.0
63691;BME280;49837;57.280;27.070;2024-03-17T02:00:07;99360.89;;;5.95;100.0
63691;BME280;49837;57.280;27.070;2024-03-17T02:01:07;99358.43;;;5.9;100.0
63691;BME280;49837;57.280;27.070;2024-03-17T02:02:07;99357.84;;;5.91;100.0
63691;BME280;49837;57.280;27.070;2024-03-17T02:03:08;99358.27;;;5.9;100.0
63691;BME280;49837;57.280;27.070;2024-03-17T02:04:08;99362.06;;;5.96;100.0
63691;BME280;49837;57.280;27.070;2024-03-17T02:05:08;99362.59;;;5.99;100.0
63691;BME280;49837;57.280;27.070;2024-03-17T02:06:09;99364.31;;;6.01;100.0
63691;BME280;49837;57.280;27.070;2024-03-17T02:07:09;99368.77;;;5.94;100.0
63691;BME280;49837;57.280;27.070;2024-03-17T02:08:10;99366.75;;;5.95;100.0
63691;BME280;49837;57.280;27.070;2024-03-17T02:09:10;99366.83;;;6.0;100.0
63691;BME280;49837;57.280;27.070;2024-03-17T02:10:10;99364.09;;;5.98;100.0
63691;BME280;49837;57.280;27.070;2024-03-17T02:12:15;99364.91;;;5.96;100.0
63691;BME280;49837;57.280;27.070;2024-03-17T02:13:16;99362.59;;;5.85;100.0
63691;BME280;49837;57.280;27.070;2024-03-17T02:14:16;99361.45;;;5.85;100.0
63691;BME280;49837;57.280;27.070;2024-03-17T02:15:16;99359.3;;;5.84;100.0
63691;BME280;49837;57.280;27.070;2024-03-17T02:16:17;99361.05;;;5.87;100.0
63691;BME280;49837;57.280;27.070;2024-03-17T02:17:17;99357.17;;;5.84;100.0
63691;BME280;49837;57.280;27.070;2024-03-17T02:18:18;99359.58;;;5.86;100.0
63691;BME280;49837;57.280;27.070;2024-03-17T02:19:18;99357.7;;;5.83;100.0
63691;BME280;49837;57.280;27.070;2024-03-17T02:20:18;99360.51;;;5.83;100.0
63691;BME280;49837;57.280;27.070;2024-03-17T02:21:19;99357.1;;;5.83;100.0
63691;BME280;49837;57.280;27.070;2024-03-17T02:22:19;99352.69;;;5.85;100.0
63691;BME280;49837;57.280;27.070;2024-03-17T02:23:20;99354.36;;;5.83;100.0
63691;BME280;49837;57.280;27.070;2024-03-17T02:24:22;99352.69;;;5.81;100.0
63691;BME280;49837;57.280;27.070;2024-03-17T02:25:22;99354.55;;;5.86;100.0
63691;BME280;49837;57.280;27.070;2024-03-17T02:26:25;99356.53;;;5.79;100.0
63691;BME280;49837;57.280;27.070;2024-03-17T02:27:23;99360.79;;;5.81;100.0
63691;BME280;49837;57.280;27.070;2024-03-17T02:28:23;99354.57;;;5.81;100.0
63691;BME280;49837;57.280;27.070;2024-03-17T02:29:24;99358.22;;;5.85;100.0
63691;BME280;49837;57.280;27.070;2024-03-17T02:30:24;99356.37;;;5.86;100.0
63691;BME280;49837;57.280;27.070;2024-03-17T02:31:24;99355.8;;;5.89;100.0
63691;BME280;49837;57.280;27.070;2024-03-17T02:32:25;99357.45;;;5.82;100.0
63691;BME280;49837;57.280;27.070;2024-03-17T02:33:25;99359.47;;;5.8;100.0
63691;BME280;49837;57.280;27.070;2024-03-17T02:34:25;99358.59;;;5.8;100.0
63691;BME280;49837;57.280;27.070;2024-03-17T02:35:26;99360.39;;;5.84;100.0
63691;BME280;49837;57.280;27.070;2024-03-17T02:36:26;99358.12;;;5.79;100.0
63691;BME280;49837;57.280;27.070;2024-03-17T02:37:27;99358.52;;;5.78;100.0
63691;BME280;49837;57.280;27.070;2024-03-17T02:38:27;99358.26;;;5.83;100.0
63691;BME280;49837;57.280;27.070;2024-03-17T02:39:27;99359.61;;;5.82;100.0
63691;BME280;49837;57.280;27.070;2024-03-17T02:40:28;99357.84;;;5.8;100.0
63691;BME280;49837;57.280;27.070;2024-03-17T02:41:28;99352.96;;;5.76;100.0
63691;BME280;49837;57.280;27.070;2024-03-17T02:42:28;99350.72;;;5.79;100.0
63691;BME280;49837;57.280;27.070;2024-03-17T02:43:29;99352.4;;;5.82;100.0
63691;BME280;49837;57.280;27.070;2024-03-17T02:44:30;99350.7;;;5.85;100.0
63691;BME280;49837;57.280;27.070;2024-03-17T02:45:30;99357.02;;;5.84;100.0
63691;BME280;49837;57.280;27.070;2024-03-17T02:46:31;99356.62;;;5.82;100.0
63691;BME280;49837;57.280;27.070;2024-03-17T02:47:31;99358.35;;;5.89;100.0
63691;BME280;49837;57.280;27.070;2024-03-17T02:48:31;99362.84;;;5.92;100.0
63691;BME280;49837;57.280;27.070;2024-03-17T02:49:32;99359.33;;;5.94;100.0
63691;BME280;49837;57.280;27.070;2024-03-17T02:50:33;99355.25;;;5.94;100.0
63691;BME280;49837;57.280;27.070;2024-03-17T02:51:33;99358.75;;;5.93;100.0
63691;BME280;49837;57.280;27.070;2024-03-17T02:52:33;99360.11;;;5.89;100.0
63691;BME280;49837;57.280;27.070;2024-03-17T02:53:33;99362.02;;;5.92;100.0
63691;BME280;49837;57.280;27.070;2024-03-17T02:54:34;99363.2;;;5.91;100.0
63691;BME280;49837;57.280;27.070;2024-03-17T02:55:34;99361.0;;;5.93;100.0
63691;BME280;49837;57.280;27.070;2024-03-17T02:56:35;99366.59;;;5.92;100.0
63691;BME280;49837;57.280;27.070;2024-03-17T02:57:35;99365.56;;;5.92;100.0
63691;BME280;49837;57.280;27.070;2024-03-17T02:58:36;99366.98;;;5.92;100.0
63691;BME280;49837;57.280;27.070;2024-03-17T02:59:36;99363.3;;;5.94;100.0
63691;BME280;49837;57.280;27.070;2024-03-17T03:00:36;99366.75;;;5.91;100.0
63691;BME280;49837;57.280;27.070;2024-03-17T03:01:37;99364.44;;;5.92;100.0
63691;BME280;49837;57.280;27.070;2024-03-17T03:02:37;99366.14;;;5.97;100.0
63691;BME280;49837;57.280;27.070;2024-03-17T03:03:38;99364.31;;;5.97;100.0
63691;BME280;49837;57.280;27.070;2024-03-17T03:04:38;99363.63;;;5.94;100.0
63691;BME280;49837;57.280;27.070;2024-03-17T03:05:38;99361.45;;;5.88;100.0
63691;BME280;49837;57.280;27.070;2024-03-17T03:06:39;99364.51;;;5.92;100.0
63691;BME280;49837;57.280;27.070;2024-03-17T03:07:39;99365.69;;;5.98;100.0
63691;BME280;49837;57.280;27.070;2024-03-17T03:08:40;99363.91;;;5.93;100.0
63691;BME280;49837;57.280;27.070;2024-03-17T03:09:40;99360.62;;;5.91;100.0
63691;BME280;49837;57.280;27.070;2024-03-17T03:10:46;99360.58;;;5.93;100.0
63691;BME280;49837;57.280;27.070;2024-03-17T03:11:44;99361.64;;;5.91;100.0
63691;BME280;49837;57.280;27.070;2024-03-17T03:12:44;99360.66;;;5.94;100.0
63691;BME280;49837;57.280;27.070;2024-03-17T03:13:45;99361.85;;;5.95;100.0
63691;BME280;49837;57.280;27.070;2024-03-17T03:14:45;99361.53;;;5.92;100.0
63691;BME280;49837;57.280;27.070;2024-03-17T03:15:48;99361.2;;;5.92;100.0
63691;BME280;49837;57.280;27.070;2024-03-17T03:16:46;99361.97;;;5.98;100.0
63691;BME280;49837;57.280;27.070;2024-03-17T03:17:46;99362.26;;;6.0;100.0
63691;BME280;49837;57.280;27.070;2024-03-17T03:18:47;99361.11;;;6.01;100.0
63691;BME280;49837;57.280;27.070;2024-03-17T03:19:47;99365.08;;;6.0;100.0
63691;BME280;49837;57.280;27.070;2024-03-17T03:20:51;99365.66;;;5.99;100.0
63691;BME280;49837;57.280;27.070;2024-03-17T03:21:48;99361.55;;;5.95;100.0
63691;BME280;49837;57.280;27.070;2024-03-17T03:22:49;99362.28;;;5.95;100.0
63691;BME280;49837;57.280;27.070;2024-03-17T03:23:49;99364.34;;;5.96;100.0
63691;BME280;49837;57.280;27.070;2024-03-17T03:24:52;99363.72;;;5.96;100.0
63691;BME280;49837;57.280;27.070;2024-03-17T03:25:55;99366.23;;;5.96;100.0
63691;BME280;49837;57.280;27.070;2024-03-17T03:26:52;99363.84;;;6.0;100.0
63691;BME280;49837;57.280;27.070;2024-03-17T03:27:53;99361.86;;;6.07;100.0
63691;BME280;49837;57.280;27.070;2024-03-17T03:28:53;99359.26;;;6.01;100.0
63691;BME280;49837;57.280;27.070;2024-03-17T03:29:54;99358.28;;;5.99;100.0
63691;BME280;49837;57.280;27.070;2024-03-17T03:30:54;99357.23;;;6.0;100.0
63691;BME280;49837;57.280;27.070;2024-03-17T03:31:54;99358.72;;;6.0;100.0
63691;BME280;49837;57.280;27.070;2024-03-17T03:32:55;99356.77;;;6.02;100.0
63691;BME280;49837;57.280;27.070;2024-03-17T03:33:55;99356.3;;;6.04;100.0
63691;BME280;49837;57.280;27.070;2024-03-17T03:34:56;99355.07;;;6.07;100.0
63691;BME280;49837;57.280;27.070;2024-03-17T03:35:56;99353.04;;;6.02;100.0
63691;BME280;49837;57.280;27.070;2024-03-17T03:36:56;99356.3;;;5.92;100.0
63691;BME280;49837;57.280;27.070;2024-03-17T03:37:57;99357.17;;;5.94;100.0
63691;BME280;49837;57.280;27.070;2024-03-17T03:38:57;99356.48;;;5.95;100.0
63691;BME280;49837;57.280;27.070;2024-03-17T03:39:58;99356.53;;;6.01;100.0
63691;BME280;49837;57.280;27.070;2024-03-17T03:40:58;99354.44;;;6.03;100.0
63691;BME280;49837;57.280;27.070;2024-03-17T03:41:58;99353.46;;;6.01;100.0
63691;BME280;49837;57.280;27.070;2024-03-17T03:42:59;99351.61;;;5.98;100.0
63691;BME280;49837;57.280;27.070;2024-03-17T03:43:59;99350.91;;;5.93;100.0
63691;BME280;49837;57.280;27.070;2024-03-17T03:44:59;99351.27;;;5.96;100.0
63691;BME280;49837;57.280;27.070;2024-03-17T03:46:01;99352.28;;;5.94;100.0
63691;BME280;49837;57.280;27.070;2024-03-17T03:47:00;99351.92;;;5.92;100.0
63691;BME280;49837;57.280;27.070;2024-03-17T03:48:01;99355.02;;;5.94;100.0
63691;BME280;49837;57.280;27.070;2024-03-17T03:49:01;99354.64;;;5.93;100.0
63691;BME280;49837;57.280;27.070;2024-03-17T03:50:02;99356.44;;;5.93;100.0
63691;BME280;49837;57.280;27.070;2024-03-17T03:51:06;99353.88;;;5.96;100.0
63691;BME280;49837;57.280;27.070;2024-03-17T03:52:04;99356.11;;;5.97;100.0
63691;BME280;49837;57.280;27.070;2024-03-17T03:53:05;99359.53;;;5.96;100.0
63691;BME280;49837;57.280;27.070;2024-03-17T03:54:05;99357.72;;;5.99;100.0
63691;BME280;49837;57.280;27.070;2024-03-17T03:55:06;99357.73;;;5.94;100.0
63691;BME280;49837;57.280;27.070;2024-03-17T03:56:06;99357.91;;;5.98;100.0
63691;BME280;49837;57.280;27.070;2024-03-17T03:57:06;99357.2;;;6.01;100.0
63691;BME280;49837;57.280;27.070;2024-03-17T03:58:06;99359.89;;;6.02;100.0
63691;BME280;49837;57.280;27.070;2024-03-17T03:59:07;99358.97;;;5.95;100.0
63691;BME280;49837;57.280;27.070;2024-03-17T04:00:07;99359.73;;;5.91;100.0
63691;BME280;49837;57.280;27.070;2024-03-17T04:01:08;99356.32;;;5.95;100.0
63691;BME280;49837;57.280;27.070;2024-03-17T04:02:08;99356.39;;;5.99;100.0
63691;BME280;49837;57.280;27.070;2024-03-17T04:03:08;99355.98;;;5.95;100.0
63691;BME280;49837;57.280;27.070;2024-03-17T04:04:09;99358.91;;;5.91;100.0
63691;BME280;49837;57.280;27.070;2024-03-17T04:05:09;99358.71;;;5.92;100.0
63691;BME280;49837;57.280;27.070;2024-03-17T04:06:10;99359.33;;;5.97;100.0
63691;BME280;49837;57.280;27.070;2024-03-17T04:07:10;99359.78;;;6.04;100.0
63691;BME280;49837;57.280;27.070;2024-03-17T04:08:10;99357.69;;;6.08;100.0
63691;BME280;49837;57.280;27.070;2024-03-17T04:09:10;99360.81;;;6.09;100.0
63691;BME280;49837;57.280;27.070;2024-03-17T04:10:12;99359.04;;;6.07;100.0
63691;BME280;49837;57.280;27.070;2024-03-17T04:11:11;99358.69;;;6.05;100.0
63691;BME280;49837;57.280;27.070;2024-03-17T04:12:12;99359.63;;;6.07;100.0
63691;BME280;49837;57.280;27.070;2024-03-17T04:13:12;99359.28;;;6.04;100.0
63691;BME280;49837;57.280;27.070;2024-03-17T04:14:12;99359.78;;;6.04;100.0
63691;BME280;49837;57.280;27.070;2024-03-17T04:15:13;99357.53;;;6.05;100.0
63691;BME280;49837;57.280;27.070;2024-03-17T04:16:13;99359.52;;;6.05;100.0
63691;BME280;49837;57.280;27.070;2024-03-17T04:17:14;99359.52;;;6.05;100.0
63691;BME280;49837;57.280;27.070;2024-03-17T04:18:14;99356.32;;;6.02;100.0
63691;BME280;49837;57.280;27.070;2024-03-17T04:19:14;99355.69;;;6.02;100.0
63691;BME280;49837;57.280;27.070;2024-03-17T04:20:15;99358.97;;;6.07;100.0
63691;BME280;49837;57.280;27.070;2024-03-17T04:21:15;99359.27;;;6.15;100.0
63691;BME280;49837;57.280;27.070;2024-03-17T04:22:16;99357.38;;;6.18;100.0
63691;BME280;49837;57.280;27.070;2024-03-17T04:23:16;99358.13;;;6.18;100.0
63691;BME280;49837;57.280;27.070;2024-03-17T04:24:17;99361.16;;;6.11;100.0
63691;BME280;49837;57.280;27.070;2024-03-17T04:25:17;99366.42;;;6.07;100.0
63691;BME280;49837;57.280;27.070;2024-03-17T04:26:17;99367.27;;;6.06;100.0
63691;BME280;49837;57.280;27.070;2024-03-17T04:27:18;99368.88;;;6.04;100.0
63691;BME280;49837;57.280;27.070;2024-03-17T04:28:18;99369.09;;;6.02;100.0
63691;BME280;49837;57.280;27.070;2024-03-17T04:29:18;99368.45;;;6.01;100.0
63691;BME280;49837;57.280;27.070;2024-03-17T04:30:19;99371.66;;;5.96;100.0
63691;BME280;49837;57.280;27.070;2024-03-17T04:31:19;99372.26;;;5.96;100.0
63691;BME280;49837;57.280;27.070;2024-03-17T04:32:20;99372.76;;;5.93;100.0
63691;BME280;49837;57.280;27.070;2024-03-17T04:33:20;99374.44;;;5.92;100.0
63691;BME280;49837;57.280;27.070;2024-03-17T04:34:20;99375.97;;;5.93;100.0
63691;BME280;49837;57.280;27.070;2024-03-17T04:35:21;99377.66;;;5.89;100.0
63691;BME280;49837;57.280;27.070;2024-03-17T04:36:21;99378.55;;;5.93;100.0
63691;BME280;49837;57.280;27.070;2024-03-17T04:37:21;99382.76;;;5.97;100.0
63691;BME280;49837;57.280;27.070;2024-03-17T04:38:22;99380.04;;;6.0;100.0
63691;BME280;49837;57.280;27.070;2024-03-17T04:39:22;99381.06;;;6.0;100.0
63691;BME280;49837;57.280;27.070;2024-03-17T04:40:23;99383.64;;;6.03;100.0
63691;BME280;49837;57.280;27.070;2024-03-17T04:41:23;99382.86;;;6.01;100.0
63691;BME280;49837;57.280;27.070;2024-03-17T04:42:24;99389.43;;;5.95;100.0
63691;BME280;49837;57.280;27.070;2024-03-17T04:43:24;99390.61;;;5.87;100.0
63691;BME280;49837;57.280;27.070;2024-03-17T04:44:24;99390.2;;;5.86;100.0
63691;BME280;49837;57.280;27.070;2024-03-17T04:45:25;99392.38;;;5.79;100.0
63691;BME280;49837;57.280;27.070;2024-03-17T04:46:25;99404.11;;;5.68;100.0
63691;BME280;49837;57.280;27.070;2024-03-17T04:47:25;99412.9;;;5.82;100.0
63691;BME280;49837;57.280;27.070;2024-03-17T04:48:26;99411.38;;;5.91;100.0
63691;BME280;49837;57.280;27.070;2024-03-17T04:49:26;99407.58;;;5.83;100.0
63691;BME280;49837;57.280;27.070;2024-03-17T04:50:26;99417.91;;;5.68;100.0
63691;BME280;49837;57.280;27.070;2024-03-17T04:51:27;99417.84;;;5.59;100.0
63691;BME280;49837;57.280;27.070;2024-03-17T04:52:27;99420.63;;;5.57;100.0
63691;BME280;49837;57.280;27.070;2024-03-17T04:53:28;99415.64;;;5.54;100.0
63691;BME280;49837;57.280;27.070;2024-03-17T04:54:28;99421.89;;;5.48;100.0
63691;BME280;49837;57.280;27.070;2024-03-17T04:55:30;99419.48;;;5.48;100.0
63691;BME280;49837;57.280;27.070;2024-03-17T04:56:30;99420.95;;;5.41;100.0
63691;BME280;49837;57.280;27.070;2024-03-17T04:57:30;99426.82;;;5.38;100.0
63691;BME280;49837;57.280;27.070;2024-03-17T04:58:34;99424.72;;;5.36;100.0
63691;BME280;49837;57.280;27.070;2024-03-17T04:59:34;99427.17;;;5.37;100.0
63691;BME280;49837;57.280;27.070;2024-03-17T05:00:32;99428.91;;;5.33;100.0
63691;BME280;49837;57.280;27.070;2024-03-17T05:01:32;99429.45;;;5.34;100.0
63691;BME280;49837;57.280;27.070;2024-03-17T05:02:33;99431.91;;;5.32;100.0
63691;BME280;49837;57.280;27.070;2024-03-17T05:03:34;99426.2;;;5.27;100.0
63691;BME280;49837;57.280;27.070;2024-03-17T05:04:33;99430.59;;;5.22;100.0
63691;BME280;49837;57.280;27.070;2024-03-17T05:05:34;99429.78;;;5.18;100.0
63691;BME280;49837;57.280;27.070;2024-03-17T05:06:34;99435.58;;;5.22;100.0
63691;BME280;49837;57.280;27.070;2024-03-17T05:07:34;99435.28;;;5.2;100.0
63691;BME280;49837;57.280;27.070;2024-03-17T05:08:35;99445.23;;;5.14;100.0
63691;BME280;49837;57.280;27.070;2024-03-17T05:09:35;99447.59;;;5.11;100.0
63691;BME280;49837;57.280;27.070;2024-03-17T05:10:36;99450.08;;;5.11;100.0
63691;BME280;49837;57.280;27.070;2024-03-17T05:11:36;99450.92;;;5.05;100.0
63691;BME280;49837;57.280;27.070;2024-03-17T05:12:36;99451.89;;;5.03;100.0
63691;BME280;49837;57.280;27.070;2024-03-17T05:13:37;99449.05;;;4.67;100.0
63691;BME280;49837;57.280;27.070;2024-03-17T05:14:37;99457.44;;;4.59;100.0
63691;BME280;49837;57.280;27.070;2024-03-17T05:15:38;99451.02;;;4.49;100.0
63691;BME280;49837;57.280;27.070;2024-03-17T05:16:38;99451.17;;;4.44;100.0
63691;BME280;49837;57.280;27.070;2024-03-17T05:17:38;99453.36;;;4.36;100.0
63691;BME280;49837;57.280;27.070;2024-03-17T05:18:39;99457.72;;;4.21;100.0
63691;BME280;49837;57.280;27.070;2024-03-17T05:19:39;99452.11;;;4.16;100.0
63691;BME280;49837;57.280;27.070;2024-03-17T05:20:40;99459.0;;;4.13;100.0
63691;BME280;49837;57.280;27.070;2024-03-17T05:21:40;99455.95;;;4.07;100.0